Time,TemperatureF,DewpointF,PressureIn,WindDirection,WindDirectionDegrees,WindSpeedMPH,WindSpeedGustMPH,Humidity,HourlyPrecipIn,Conditions,Clouds,dailyrainin,SoftwareType,DateUTC
2013-01-09 00:00:00,29.8,16.5,30.24,NE,51,0.0,0.0,57,0.00,,---,0.00,VWS V14.01,2013-01-09 05:00:00,
2013-01-09 00:01:00,29.8,16.5,30.24,NE,51,0.0,0.0,57,0.00,,---,0.00,VWS V14.01,2013-01-09 05:01:00,
2013-01-09 00:02:00,29.8,16.5,30.24,NE,51,0.0,0.0,57,0.00,,---,0.00,VWS V14.01,2013-01-09 05:02:00,
2013-01-09 00:03:00,29.8,16.5,30.24,NE,51,0.0,0.0,57,0.00,,---,0.00,VWS V14.01,2013-01-09 05:03:00,
2013-01-09 00:08:00,30.0,16.6,30.24,NE,51,0.0,0.0,57,0.00,,---,0.00,VWS V14.01,2013-01-09 05:08:00,
2013-01-09 00:13:00,30.0,16.6,30.24,NE,51,0.0,0.0,57,0.00,,---,0.00,VWS V14.01,2013-01-09 05:13:00,
2013-01-09 00:18:00,30.2,17.2,30.24,NE,51,0.0,0.0,58,0.00,,---,0.00,VWS V14.01,2013-01-09 05:18:00,
2013-01-09 00:23:00,30.2,17.2,30.24,NE,51,0.0,0.0,58,0.00,,---,0.00,VWS V14.01,2013-01-09 05:23:00,
2013-01-09 00:28:00,30.0,16.6,30.21,NE,51,0.0,0.0,57,0.00,,---,0.00,VWS V14.01,2013-01-09 05:28:00,
2013-01-09 00:33:00,29.7,16.3,30.21,NE,51,0.0,0.0,57,0.00,,---,0.00,VWS V14.01,2013-01-09 05:33:00,
2013-01-09 00:38:00,29.5,16.1,30.21,NE,51,0.0,0.0,57,0.00,,---,0.00,VWS V14.01,2013-01-09 05:38:00,
2013-01-09 00:43:00,29.3,16.0,30.24,NE,51,0.0,0.0,57,0.00,,---,0.00,VWS V14.01,2013-01-09 05:43:00,
2013-01-09 00:48:00,29.3,16.4,30.24,NE,51,0.0,0.0,58,0.00,,---,0.00,VWS V14.01,2013-01-09 05:48:00,
2013-01-09 00:53:00,29.3,16.4,30.24,NE,51,0.0,0.0,58,0.00,,---,0.00,VWS V14.01,2013-01-09 05:53:00,
2013-01-09 00:58:00,29.1,16.6,30.24,NE,51,0.0,0.0,59,0.00,,---,0.00,VWS V14.01,2013-01-09 05:58:00,
2013-01-09 01:03:00,28.9,16.0,30.24,NE,51,0.0,0.0,58,0.00,,---,0.00,VWS V14.01,2013-01-09 06:03:00,
2013-01-09 01:08:00,28.8,15.9,30.24,NE,51,0.0,0.0,58,0.00,,---,0.00,VWS V14.01,2013-01-09 06:08:00,
2013-01-09 01:14:00,28.6,15.7,30.21,NE,51,0.0,0.0,58,0.00,,---,0.00,VWS V14.01,2013-01-09 06:14:00,
2013-01-09 01:19:00,28.6,15.7,30.21,NE,51,0.0,0.0,58,0.00,,---,0.00,VWS V14.01,2013-01-09 06:19:00,
2013-01-09 01:24:00,28.6,16.1,30.21,NE,51,0.0,0.0,59,0.00,,---,0.00,VWS V14.01,2013-01-09 06:24:00,
2013-01-09 01:29:00,28.8,16.6,30.24,NE,51,0.0,0.0,60,0.00,,---,0.00,VWS V14.01,2013-01-09 06:29:00,
2013-01-09 01:34:00,28.8,16.6,30.24,NE,51,0.0,0.0,60,0.00,,---,0.00,VWS V14.01,2013-01-09 06:34:00,
2013-01-09 01:39:00,28.8,16.6,30.24,NE,51,0.0,0.0,60,0.00,,---,0.00,VWS V14.01,2013-01-09 06:39:00,
2013-01-09 01:44:00,28.9,16.8,30.24,NE,51,0.0,0.0,60,0.00,,---,0.00,VWS V14.01,2013-01-09 06:44:00,
2013-01-09 01:49:00,29.3,17.5,30.24,NE,51,0.0,0.0,61,0.00,,---,0.00,VWS V14.01,2013-01-09 06:49:00,
2013-01-09 01:54:00,29.5,17.7,30.24,NE,51,0.0,0.0,61,0.00,,---,0.00,VWS V14.01,2013-01-09 06:54:00,
2013-01-09 01:59:00,29.5,17.7,30.24,NE,51,0.0,0.0,61,0.00,,---,0.00,VWS V14.01,2013-01-09 06:59:00,
2013-01-09 02:04:00,29.5,17.7,30.24,NE,51,0.0,0.0,61,0.00,,---,0.00,VWS V14.01,2013-01-09 07:04:00,
2013-01-09 02:09:00,29.5,17.7,30.24,NE,51,0.0,0.0,61,0.00,,---,0.00,VWS V14.01,2013-01-09 07:09:00,
2013-01-09 02:14:00,29.5,17.3,30.24,NE,51,0.0,0.0,60,0.00,,---,0.00,VWS V14.01,2013-01-09 07:14:00,
2013-01-09 02:19:00,29.1,16.6,30.24,NE,51,0.0,0.0,59,0.00,,---,0.00,VWS V14.01,2013-01-09 07:19:00,
2013-01-09 02:24:00,28.9,16.4,30.24,NE,51,0.0,0.0,59,0.00,,---,0.00,VWS V14.01,2013-01-09 07:24:00,
2013-01-09 02:29:00,29.3,17.1,30.24,NE,51,0.0,0.0,60,0.00,,---,0.00,VWS V14.01,2013-01-09 07:29:00,
2013-01-09 02:34:00,29.7,17.5,30.24,NE,51,0.0,0.0,60,0.00,,---,0.00,VWS V14.01,2013-01-09 07:34:00,
2013-01-09 02:39:00,30.0,17.8,30.24,NE,51,0.0,0.0,60,0.00,,---,0.00,VWS V14.01,2013-01-09 07:39:00,
2013-01-09 02:44:00,29.7,17.1,30.24,NE,51,0.0,0.0,59,0.00,,---,0.00,VWS V14.01,2013-01-09 07:44:00,
2013-01-09 02:49:00,29.5,16.9,30.24,NE,51,0.0,0.0,59,0.00,,---,0.00,VWS V14.01,2013-01-09 07:49:00,
2013-01-09 02:54:00,29.5,16.9,30.24,NE,51,0.0,0.0,59,0.00,,---,0.00,VWS V14.01,2013-01-09 07:54:00,
2013-01-09 02:59:00,29.1,16.2,30.24,NE,51,0.0,0.0,58,0.00,,---,0.00,VWS V14.01,2013-01-09 07:59:00,
2013-01-09 03:04:00,28.8,15.9,30.24,NE,51,0.0,0.0,58,0.00,,---,0.00,VWS V14.01,2013-01-09 08:04:00,
2013-01-09 03:09:00,28.6,15.7,30.24,NE,51,0.0,0.0,58,0.00,,---,0.00,VWS V14.01,2013-01-09 08:09:00,
2013-01-09 03:14:00,28.4,15.9,30.24,NE,51,0.0,0.0,59,0.00,,---,0.00,VWS V14.01,2013-01-09 08:14:00,
2013-01-09 03:19:00,28.4,16.3,30.24,NE,51,0.0,0.0,60,0.00,,---,0.00,VWS V14.01,2013-01-09 08:19:00,
2013-01-09 03:24:00,28.6,16.5,30.24,NE,51,0.0,0.0,60,0.00,,---,0.00,VWS V14.01,2013-01-09 08:24:00,
2013-01-09 03:29:00,28.8,17.0,30.24,NE,51,0.0,0.0,61,0.00,,---,0.00,VWS V14.01,2013-01-09 08:29:00,
2013-01-09 03:34:00,28.8,17.0,30.24,NE,51,0.0,0.0,61,0.00,,---,0.00,VWS V14.01,2013-01-09 08:34:00,
2013-01-09 03:39:00,28.8,17.0,30.24,NE,51,0.0,0.0,61,0.00,,---,0.00,VWS V14.01,2013-01-09 08:39:00,
2013-01-09 03:44:00,28.8,17.0,30.24,NE,51,0.0,0.0,61,0.00,,---,0.00,VWS V14.01,2013-01-09 08:44:00,
2013-01-09 03:49:00,28.8,17.4,30.24,NE,51,0.0,0.0,62,0.00,,---,0.00,VWS V14.01,2013-01-09 08:49:00,
2013-01-09 03:54:00,28.6,16.9,30.24,NE,51,0.0,0.0,61,0.00,,---,0.00,VWS V14.01,2013-01-09 08:54:00,
2013-01-09 03:59:00,28.6,16.9,30.24,NE,51,0.0,0.0,61,0.00,,---,0.00,VWS V14.01,2013-01-09 08:59:00,
2013-01-09 04:04:00,28.4,17.1,30.24,NE,51,0.0,0.0,62,0.00,,---,0.00,VWS V14.01,2013-01-09 09:04:00,
2013-01-09 04:09:00,28.4,17.1,30.24,NE,51,0.0,0.0,62,0.00,,---,0.00,VWS V14.01,2013-01-09 09:09:00,
2013-01-09 04:15:00,28.4,17.1,30.24,NE,51,0.0,0.0,62,0.00,,---,0.00,VWS V14.01,2013-01-09 09:15:00,
2013-01-09 04:20:00,28.6,17.6,30.24,NE,51,0.0,0.0,63,0.00,,---,0.00,VWS V14.01,2013-01-09 09:20:00,
2013-01-09 04:25:00,28.6,17.6,30.24,NE,51,0.0,0.0,63,0.00,,---,0.00,VWS V14.01,2013-01-09 09:25:00,
2013-01-09 04:30:00,28.6,17.6,30.24,NE,51,0.0,0.0,63,0.00,,---,0.00,VWS V14.01,2013-01-09 09:30:00,
2013-01-09 04:35:00,28.6,17.6,30.24,NE,51,0.0,0.0,63,0.00,,---,0.00,VWS V14.01,2013-01-09 09:35:00,
2013-01-09 04:40:00,28.6,17.6,30.24,NE,51,0.0,0.0,63,0.00,,---,0.00,VWS V14.01,2013-01-09 09:40:00,
2013-01-09 04:45:00,28.6,17.6,30.24,NE,51,0.0,0.0,63,0.00,,---,0.00,VWS V14.01,2013-01-09 09:45:00,
2013-01-09 04:50:00,28.6,17.6,30.24,NE,51,0.0,0.0,63,0.00,,---,0.00,VWS V14.01,2013-01-09 09:50:00,
2013-01-09 04:55:00,28.6,17.6,30.24,NE,51,0.0,0.0,63,0.00,,---,0.00,VWS V14.01,2013-01-09 09:55:00,
2013-01-09 05:00:00,28.6,17.6,30.24,NE,51,0.0,0.0,63,0.00,,---,0.00,VWS V14.01,2013-01-09 10:00:00,
2013-01-09 05:05:00,28.6,17.6,30.24,NE,51,0.0,0.0,63,0.00,,---,0.00,VWS V14.01,2013-01-09 10:05:00,
2013-01-09 05:10:00,28.6,17.6,30.24,NE,51,0.0,0.0,63,0.00,,---,0.00,VWS V14.01,2013-01-09 10:10:00,
2013-01-09 05:15:00,28.6,18.0,30.24,NE,51,0.0,0.0,64,0.00,,---,0.00,VWS V14.01,2013-01-09 10:15:00,
2013-01-09 05:20:00,28.6,18.0,30.24,NE,51,0.0,0.0,64,0.00,,---,0.00,VWS V14.01,2013-01-09 10:20:00,
2013-01-09 05:25:00,28.6,18.0,30.24,NE,51,0.0,0.0,64,0.00,,---,0.00,VWS V14.01,2013-01-09 10:25:00,
2013-01-09 05:30:00,28.4,17.8,30.24,NE,51,0.0,0.0,64,0.00,,---,0.00,VWS V14.01,2013-01-09 10:30:00,
2013-01-09 05:35:00,28.2,17.6,30.24,NE,51,0.0,0.0,64,0.00,,---,0.00,VWS V14.01,2013-01-09 10:35:00,
2013-01-09 05:40:00,28.2,17.6,30.24,NE,51,0.0,0.0,64,0.00,,---,0.00,VWS V14.01,2013-01-09 10:40:00,
2013-01-09 05:45:00,28.0,17.5,30.24,NE,51,0.0,0.0,64,0.00,,---,0.00,VWS V14.01,2013-01-09 10:45:00,
2013-01-09 05:50:00,28.0,17.5,30.24,NE,51,0.0,0.0,64,0.00,,---,0.00,VWS V14.01,2013-01-09 10:50:00,
2013-01-09 05:55:00,28.2,17.6,30.24,NE,51,0.0,0.0,64,0.00,,---,0.00,VWS V14.01,2013-01-09 10:55:00,
2013-01-09 06:00:00,28.2,17.3,30.24,NE,45,0.0,0.0,63,0.00,,---,0.00,VWS V14.01,2013-01-09 11:00:00,
2013-01-09 06:05:00,28.2,17.3,30.24,NE,45,0.0,0.0,63,0.00,,---,0.00,VWS V14.01,2013-01-09 11:05:00,
2013-01-09 06:10:00,28.6,18.0,30.24,NE,45,0.0,0.0,64,0.00,,---,0.00,VWS V14.01,2013-01-09 11:10:00,
2013-01-09 06:15:00,28.9,18.3,30.24,NE,45,0.0,0.0,64,0.00,,---,0.00,VWS V14.01,2013-01-09 11:15:00,
2013-01-09 06:20:00,29.5,18.8,30.24,NE,45,0.0,0.0,64,0.00,,---,0.00,VWS V14.01,2013-01-09 11:20:00,
2013-01-09 06:25:00,29.3,18.3,30.24,NE,45,0.0,0.0,63,0.00,,---,0.00,VWS V14.01,2013-01-09 11:25:00,
2013-01-09 06:30:00,29.1,18.1,30.24,NE,45,0.0,0.0,63,0.00,,---,0.00,VWS V14.01,2013-01-09 11:30:00,
2013-01-09 06:35:00,29.1,18.1,30.24,NE,45,0.0,0.0,63,0.00,,---,0.00,VWS V14.01,2013-01-09 11:35:00,
2013-01-09 06:40:00,29.3,18.6,30.24,NE,45,0.0,0.0,64,0.00,,---,0.00,VWS V14.01,2013-01-09 11:40:00,
2013-01-09 06:45:00,29.1,18.1,30.24,NE,41,0.0,0.0,63,0.00,,---,0.00,VWS V14.01,2013-01-09 11:45:00,
2013-01-09 06:50:00,28.8,17.4,30.24,NE,41,0.0,0.0,62,0.00,,---,0.00,VWS V14.01,2013-01-09 11:50:00,
2013-01-09 06:55:00,28.6,17.2,30.24,NE,41,0.0,0.0,62,0.00,,---,0.00,VWS V14.01,2013-01-09 11:55:00,
2013-01-09 07:01:00,28.6,17.2,30.24,NE,41,0.0,0.0,62,0.00,,---,0.00,VWS V14.01,2013-01-09 12:01:00,
2013-01-09 07:06:00,28.6,17.2,30.24,NE,41,0.0,0.0,62,0.00,,---,0.00,VWS V14.01,2013-01-09 12:06:00,
2013-01-09 07:11:00,28.6,17.6,30.24,NE,41,0.0,0.0,63,0.00,,---,0.00,VWS V14.01,2013-01-09 12:11:00,
2013-01-09 07:16:00,28.8,17.8,30.24,NE,41,0.0,0.0,63,0.00,,---,0.00,VWS V14.01,2013-01-09 12:16:00,
2013-01-09 07:21:00,28.8,17.8,30.24,NE,41,0.0,0.0,63,0.00,,---,0.00,VWS V14.01,2013-01-09 12:21:00,
2013-01-09 07:26:00,29.1,18.5,30.24,NE,41,0.0,0.0,64,0.00,,---,0.00,VWS V14.01,2013-01-09 12:26:00,
2013-01-09 07:31:00,29.3,18.6,30.24,NE,41,0.0,0.0,64,0.00,,---,0.00,VWS V14.01,2013-01-09 12:31:00,
2013-01-09 07:36:00,29.3,18.6,30.24,NE,41,0.0,0.0,64,0.00,,---,0.00,VWS V14.01,2013-01-09 12:36:00,
2013-01-09 07:41:00,29.1,18.1,30.27,NE,41,0.0,0.0,63,0.00,,---,0.00,VWS V14.01,2013-01-09 12:41:00,
2013-01-09 07:46:00,28.8,17.8,30.27,NE,41,0.0,0.0,63,0.00,,---,0.00,VWS V14.01,2013-01-09 12:46:00,
2013-01-09 07:51:00,28.6,17.6,30.27,NE,41,0.0,0.0,63,0.00,,---,0.00,VWS V14.01,2013-01-09 12:51:00,
2013-01-09 07:56:00,28.6,17.6,30.27,NE,41,0.0,0.0,63,0.00,,---,0.00,VWS V14.01,2013-01-09 12:56:00,
2013-01-09 08:01:00,28.6,17.6,30.27,NE,41,0.0,0.0,63,0.00,,---,0.00,VWS V14.01,2013-01-09 13:01:00,
2013-01-09 08:06:00,28.6,17.6,30.27,NE,41,0.0,0.0,63,0.00,,---,0.00,VWS V14.01,2013-01-09 13:06:00,
2013-01-09 08:11:00,28.6,17.6,30.27,NE,41,0.0,0.0,63,0.00,,---,0.00,VWS V14.01,2013-01-09 13:11:00,
2013-01-09 08:17:00,28.8,18.1,30.27,NE,41,0.0,0.0,64,0.00,,---,0.00,VWS V14.01,2013-01-09 13:17:00,
2013-01-09 08:22:00,29.1,18.5,30.27,NE,41,0.0,0.0,64,0.00,,---,0.00,VWS V14.01,2013-01-09 13:22:00,
2013-01-09 08:27:00,29.3,18.6,30.27,NE,41,0.0,0.0,64,0.00,,---,0.00,VWS V14.01,2013-01-09 13:27:00,
2013-01-09 08:32:00,29.3,18.6,30.27,NE,41,0.0,0.0,64,0.00,,---,0.00,VWS V14.01,2013-01-09 13:32:00,
2013-01-09 08:37:00,29.7,19.0,30.27,NE,41,0.0,0.0,64,0.00,,---,0.00,VWS V14.01,2013-01-09 13:37:00,
2013-01-09 08:42:00,30.2,19.5,30.27,NE,41,0.0,0.0,64,0.00,,---,0.00,VWS V14.01,2013-01-09 13:42:00,
2013-01-09 08:47:00,30.6,19.9,30.27,NE,41,0.0,0.0,64,0.00,,---,0.00,VWS V14.01,2013-01-09 13:47:00,
2013-01-09 08:52:00,30.9,19.8,30.27,NE,41,0.0,0.0,63,0.00,,---,0.00,VWS V14.01,2013-01-09 13:52:00,
2013-01-09 08:57:00,31.1,20.0,30.30,NE,41,0.0,0.0,63,0.00,,---,0.00,VWS V14.01,2013-01-09 13:57:00,
2013-01-09 09:02:00,31.3,19.8,30.30,NE,41,0.0,0.0,62,0.00,,---,0.00,VWS V14.01,2013-01-09 14:02:00,
2013-01-09 09:07:00,31.6,20.1,30.30,NE,41,0.0,0.0,62,0.00,,---,0.00,VWS V14.01,2013-01-09 14:07:00,
2013-01-09 09:12:00,32.0,20.5,30.30,NE,41,0.0,0.0,62,0.00,,---,0.00,VWS V14.01,2013-01-09 14:12:00,
2013-01-09 09:17:00,32.2,20.3,30.30,NE,41,0.0,0.0,61,0.00,,---,0.00,VWS V14.01,2013-01-09 14:17:00,
2013-01-09 09:23:00,32.5,20.6,30.30,NE,41,0.0,0.0,61,0.00,,---,0.00,VWS V14.01,2013-01-09 14:23:00,
2013-01-09 09:27:00,32.7,20.4,30.30,NE,41,0.0,0.0,60,0.00,,---,0.00,VWS V14.01,2013-01-09 14:27:00,
2013-01-09 09:33:00,33.3,20.9,30.30,NE,41,0.0,0.0,60,0.00,,---,0.00,VWS V14.01,2013-01-09 14:33:00,
2013-01-09 09:38:00,33.6,20.8,30.30,NE,41,0.0,0.0,59,0.00,,---,0.00,VWS V14.01,2013-01-09 14:38:00,
2013-01-09 09:43:00,34.0,21.2,30.30,NE,41,0.0,0.0,59,0.00,,---,0.00,VWS V14.01,2013-01-09 14:43:00,
2013-01-09 09:48:00,34.3,21.1,30.30,NE,41,0.0,0.0,58,0.00,,---,0.00,VWS V14.01,2013-01-09 14:48:00,
2013-01-09 09:53:00,34.3,19.9,30.30,NE,41,0.0,0.0,55,0.00,,---,0.00,VWS V14.01,2013-01-09 14:53:00,
2013-01-09 09:58:00,34.3,19.4,30.30,NE,41,0.0,0.0,54,0.00,,---,0.00,VWS V14.01,2013-01-09 14:58:00,
2013-01-09 10:03:00,34.5,19.6,30.30,NE,41,0.0,0.0,54,0.00,,---,0.00,VWS V14.01,2013-01-09 15:03:00,
2013-01-09 10:08:00,34.9,19.9,30.30,NE,41,0.0,0.0,54,0.00,,---,0.00,VWS V14.01,2013-01-09 15:08:00,
2013-01-09 10:13:00,35.1,19.2,30.30,NE,41,0.0,0.0,52,0.00,,---,0.00,VWS V14.01,2013-01-09 15:13:00,
2013-01-09 10:18:00,35.4,19.6,30.30,NE,41,0.0,0.0,52,0.00,,---,0.00,VWS V14.01,2013-01-09 15:18:00,
2013-01-09 10:23:00,35.6,19.3,30.30,NE,41,0.0,0.0,51,0.00,,---,0.00,VWS V14.01,2013-01-09 15:23:00,
2013-01-09 10:28:00,36.0,19.6,30.30,NE,41,0.0,0.0,51,0.00,,---,0.00,VWS V14.01,2013-01-09 15:28:00,
2013-01-09 10:33:00,36.1,19.3,30.30,NE,41,0.0,0.0,50,0.00,,---,0.00,VWS V14.01,2013-01-09 15:33:00,
2013-01-09 10:38:00,36.3,19.5,30.30,NE,41,0.0,0.0,50,0.00,,---,0.00,VWS V14.01,2013-01-09 15:38:00,
2013-01-09 10:43:00,36.7,19.8,30.27,NE,41,0.0,0.0,50,0.00,,---,0.00,VWS V14.01,2013-01-09 15:43:00,
2013-01-09 10:48:00,37.2,20.3,30.27,NE,41,0.0,0.0,50,0.00,,---,0.00,VWS V14.01,2013-01-09 15:48:00,
2013-01-09 10:53:00,37.8,19.4,30.27,NE,41,0.0,2.7,47,0.00,,---,0.00,VWS V14.01,2013-01-09 15:53:00,
2013-01-09 10:58:00,37.9,19.0,30.27,NE,41,0.0,0.0,46,0.00,,---,0.00,VWS V14.01,2013-01-09 15:58:00,
2013-01-09 11:03:00,38.3,19.4,30.27,NE,41,0.0,0.0,46,0.00,,---,0.00,VWS V14.01,2013-01-09 16:03:00,
2013-01-09 11:09:00,38.7,19.2,30.27,NE,41,0.0,0.0,45,0.00,,---,0.00,VWS V14.01,2013-01-09 16:09:00,
2013-01-09 11:14:00,39.2,19.7,30.27,NE,41,0.0,0.0,45,0.00,,---,0.00,VWS V14.01,2013-01-09 16:14:00,
2013-01-09 11:19:00,39.7,20.1,30.27,NE,39,0.0,0.0,45,0.00,,---,0.00,VWS V14.01,2013-01-09 16:19:00,
2013-01-09 11:24:00,40.1,20.5,30.27,NE,39,0.0,0.0,45,0.00,,---,0.00,VWS V14.01,2013-01-09 16:24:00,
2013-01-09 11:29:00,40.3,20.6,30.27,NE,39,0.0,0.0,45,0.00,,---,0.00,VWS V14.01,2013-01-09 16:29:00,
2013-01-09 11:34:00,40.6,21.0,30.27,NE,39,0.0,0.0,45,0.00,,---,0.00,VWS V14.01,2013-01-09 16:34:00,
2013-01-09 11:39:00,41.0,20.8,30.27,NE,39,0.0,0.0,44,0.00,,---,0.00,VWS V14.01,2013-01-09 16:39:00,
2013-01-09 11:44:00,41.0,20.8,30.24,NE,39,0.0,0.0,44,0.00,,---,0.00,VWS V14.01,2013-01-09 16:44:00,
2013-01-09 11:55:00,41.7,23.5,30.24,NE,39,0.0,0.0,48,0.00,,---,0.00,VWS V14.01,2013-01-09 16:55:00,
2013-01-09 12:00:00,42.4,22.1,30.24,NE,39,0.0,0.0,44,0.00,,---,0.00,VWS V14.01,2013-01-09 17:00:00,
2013-01-09 12:05:00,43.0,21.5,30.24,NE,39,0.0,0.0,42,0.00,,---,0.00,VWS V14.01,2013-01-09 17:05:00,
2013-01-09 12:10:00,43.5,22.0,30.24,NE,39,0.0,0.0,42,0.00,,---,0.00,VWS V14.01,2013-01-09 17:10:00,
2013-01-09 12:15:00,44.1,23.0,30.24,WNW,285,2.2,3.6,43,0.00,,---,0.00,VWS V14.01,2013-01-09 17:15:00,
2013-01-09 12:20:00,44.8,22.5,30.24,West,269,0.0,2.7,41,0.00,,---,0.00,VWS V14.01,2013-01-09 17:20:00,
2013-01-09 12:25:00,45.1,22.3,30.24,West,269,0.0,0.0,40,0.00,,---,0.00,VWS V14.01,2013-01-09 17:25:00,
2013-01-09 12:30:00,45.3,22.4,30.24,West,269,2.2,2.7,40,0.00,,---,0.00,VWS V14.01,2013-01-09 17:30:00,
2013-01-09 12:35:00,46.4,24.6,30.24,SW,225,3.1,4.0,42,0.00,,---,0.00,VWS V14.01,2013-01-09 17:35:00,
2013-01-09 12:40:00,47.3,25.4,30.24,WSW,248,4.5,4.5,42,0.00,,---,0.00,VWS V14.01,2013-01-09 17:40:00,
2013-01-09 12:45:00,47.8,24.7,30.24,SW,221,2.7,2.7,40,0.00,,---,0.00,VWS V14.01,2013-01-09 17:45:00,
2013-01-09 12:50:00,47.8,24.7,30.24,SW,230,0.0,0.0,40,0.00,,---,0.00,VWS V14.01,2013-01-09 17:50:00,
2013-01-09 12:55:00,47.8,24.1,30.24,SSW,213,0.0,0.0,39,0.00,,---,0.00,VWS V14.01,2013-01-09 17:55:00,
2013-01-09 13:00:00,47.8,24.1,30.24,SW,218,0.0,0.0,39,0.00,,---,0.00,VWS V14.01,2013-01-09 18:00:00,
2013-01-09 13:05:00,47.7,23.3,30.24,WSW,251,0.0,0.0,38,0.00,,---,0.00,VWS V14.01,2013-01-09 18:05:00,
2013-01-09 13:10:00,47.5,23.8,30.24,WSW,239,0.0,0.0,39,0.00,,---,0.00,VWS V14.01,2013-01-09 18:10:00,
2013-01-09 13:15:00,47.5,23.8,30.24,SSW,207,0.0,0.0,39,0.00,,---,0.00,VWS V14.01,2013-01-09 18:15:00,
2013-01-09 13:20:00,47.5,23.2,30.24,SSW,211,0.0,2.2,38,0.00,,---,0.00,VWS V14.01,2013-01-09 18:20:00,
2013-01-09 13:25:00,47.3,23.6,30.24,SW,235,0.0,2.2,39,0.00,,---,0.00,VWS V14.01,2013-01-09 18:25:00,
2013-01-09 13:30:00,46.9,23.9,30.24,WSW,243,0.0,0.0,40,0.00,,---,0.00,VWS V14.01,2013-01-09 18:30:00,
2013-01-09 13:35:00,46.0,23.7,30.24,WSW,243,0.0,0.0,41,0.00,,---,0.00,VWS V14.01,2013-01-09 18:35:00,
2013-01-09 13:40:00,45.9,25.7,30.24,SSW,204,3.1,4.9,45,0.00,,---,0.00,VWS V14.01,2013-01-09 18:40:00,
2013-01-09 13:41:00,45.9,25.7,30.24,NW,307,4.0,4.9,45,0.00,,---,0.00,VWS V14.01,2013-01-09 18:41:00,
2013-01-09 13:42:00,45.9,25.7,30.24,NW,304,0.0,4.0,45,0.00,,---,0.00,VWS V14.01,2013-01-09 18:42:00,
2013-01-09 13:43:00,45.9,25.7,30.24,WNW,303,0.0,0.0,45,0.00,,---,0.00,VWS V14.01,2013-01-09 18:43:00,
2013-01-09 13:44:00,45.9,26.3,30.24,WNW,302,0.0,0.0,46,0.00,,---,0.00,VWS V14.01,2013-01-09 18:44:00,
2013-01-09 13:45:00,45.9,26.3,30.24,WNW,302,0.0,0.0,46,0.00,,---,0.00,VWS V14.01,2013-01-09 18:45:00,
2013-01-09 13:48:00,45.9,26.3,30.24,SSW,200,3.1,3.1,46,0.00,,---,0.00,VWS V14.01,2013-01-09 18:48:00,
2013-01-09 13:49:00,45.9,26.3,30.24,SW,223,3.1,4.0,46,0.00,,---,0.00,VWS V14.01,2013-01-09 18:49:00,
2013-01-09 13:54:00,46.2,26.1,30.24,SSW,208,0.0,0.0,45,0.00,,---,0.00,VWS V14.01,2013-01-09 18:54:00,
2013-01-09 13:59:00,45.9,25.2,30.24,WSW,256,2.7,3.1,44,0.00,,---,0.00,VWS V14.01,2013-01-09 18:59:00,
2013-01-09 14:04:00,45.5,25.9,30.24,West,268,2.2,2.2,46,0.00,,---,0.00,VWS V14.01,2013-01-09 19:04:00,
2013-01-09 14:09:00,45.9,26.8,30.24,SSW,197,0.0,0.0,47,0.00,,---,0.00,VWS V14.01,2013-01-09 19:09:00,
2013-01-09 14:14:00,45.9,26.8,30.27,NW,307,3.1,3.1,47,0.00,,---,0.00,VWS V14.01,2013-01-09 19:14:00,
2013-01-09 14:19:00,45.5,25.9,30.27,NW,307,2.7,2.7,46,0.00,,---,0.00,VWS V14.01,2013-01-09 19:19:00,
2013-01-09 14:24:00,45.0,26.0,30.27,SSE,152,2.2,2.2,47,0.00,,---,0.00,VWS V14.01,2013-01-09 19:24:00,
2013-01-09 14:29:00,45.7,27.1,30.27,WSW,240,0.0,0.0,48,0.00,,---,0.00,VWS V14.01,2013-01-09 19:29:00,
2013-01-09 14:34:00,46.0,27.5,30.27,SW,228,3.6,3.6,48,0.00,,---,0.00,VWS V14.01,2013-01-09 19:34:00,
2013-01-09 14:40:00,46.6,27.5,30.27,WSW,250,2.7,3.6,47,0.00,,---,0.00,VWS V14.01,2013-01-09 19:40:00,
2013-01-09 14:45:00,46.9,27.8,30.27,SW,222,2.7,3.6,47,0.00,,---,0.00,VWS V14.01,2013-01-09 19:45:00,
2013-01-09 14:50:00,46.9,27.3,30.27,NW,312,3.1,3.1,46,0.00,,---,0.00,VWS V14.01,2013-01-09 19:50:00,
2013-01-09 14:55:00,47.3,28.1,30.27,WSW,239,0.0,3.1,47,0.00,,---,0.00,VWS V14.01,2013-01-09 19:55:00,
2013-01-09 15:00:00,47.1,27.9,30.27,South,179,2.7,3.1,47,0.00,,---,0.00,VWS V14.01,2013-01-09 20:00:00,
2013-01-09 15:05:00,47.5,29.3,30.27,SW,227,0.0,3.1,49,0.00,,---,0.00,VWS V14.01,2013-01-09 20:05:00,
2013-01-09 15:10:00,47.7,30.0,30.27,ENE,71,0.0,0.0,50,0.00,,---,0.00,VWS V14.01,2013-01-09 20:10:00,
2013-01-09 15:15:00,47.3,29.1,30.27,SSW,202,0.0,0.0,49,0.00,,---,0.00,VWS V14.01,2013-01-09 20:15:00,
2013-01-09 15:20:00,46.9,28.8,30.27,SSW,206,0.0,0.0,49,0.00,,---,0.00,VWS V14.01,2013-01-09 20:20:00,
2013-01-09 15:25:00,46.6,30.4,30.24,WSW,250,2.2,2.2,53,0.00,,---,0.00,VWS V14.01,2013-01-09 20:25:00,
2013-01-09 15:30:00,46.9,30.2,30.24,WNW,290,0.0,0.0,52,0.00,,---,0.00,VWS V14.01,2013-01-09 20:30:00,
2013-01-09 15:35:00,46.8,29.1,30.24,West,279,0.0,0.0,50,0.00,,---,0.00,VWS V14.01,2013-01-09 20:35:00,
2013-01-09 15:40:00,46.2,28.1,30.27,SW,222,4.9,5.4,49,0.00,,---,0.00,VWS V14.01,2013-01-09 20:40:00,
2013-01-09 15:45:00,46.0,27.5,30.27,SSW,192,0.0,0.0,48,0.00,,---,0.00,VWS V14.01,2013-01-09 20:45:00,
2013-01-09 15:50:00,46.0,28.0,30.27,SW,228,0.0,0.0,49,0.00,,---,0.00,VWS V14.01,2013-01-09 20:50:00,
2013-01-09 15:55:00,46.8,28.6,30.24,WSW,244,0.0,0.0,49,0.00,,---,0.00,VWS V14.01,2013-01-09 20:55:00,
2013-01-09 16:00:00,46.4,27.8,30.24,WSW,244,0.0,0.0,48,0.00,,---,0.00,VWS V14.01,2013-01-09 21:00:00,
2013-01-09 16:05:00,45.5,27.0,30.24,WSW,244,0.0,0.0,48,0.00,,---,0.00,VWS V14.01,2013-01-09 21:05:00,
2013-01-09 16:10:00,44.6,26.6,30.24,WSW,244,0.0,0.0,49,0.00,,---,0.00,VWS V14.01,2013-01-09 21:10:00,
2013-01-09 16:15:00,43.9,26.9,30.24,WSW,244,0.0,0.0,51,0.00,,---,0.00,VWS V14.01,2013-01-09 21:15:00,
2013-01-09 16:20:00,43.5,27.1,30.24,WSW,244,0.0,0.0,52,0.00,,---,0.00,VWS V14.01,2013-01-09 21:20:00,
2013-01-09 16:26:00,43.5,27.5,30.24,WSW,244,0.0,0.0,53,0.00,,---,0.00,VWS V14.01,2013-01-09 21:26:00,
2013-01-09 16:31:00,43.3,28.3,30.24,WSW,237,0.0,0.0,55,0.00,,---,0.00,VWS V14.01,2013-01-09 21:31:00,
2013-01-09 16:36:00,43.5,29.7,30.24,WSW,241,0.0,2.7,58,0.00,,---,0.00,VWS V14.01,2013-01-09 21:36:00,
2013-01-09 16:41:00,44.1,31.1,30.24,West,265,0.0,0.0,60,0.00,,---,0.00,VWS V14.01,2013-01-09 21:41:00,
2013-01-09 16:46:00,43.9,30.5,30.24,SSW,210,2.7,4.0,59,0.00,,---,0.00,VWS V14.01,2013-01-09 21:46:00,
2013-01-09 16:51:00,44.1,31.5,30.24,SSE,154,0.0,0.0,61,0.00,,---,0.00,VWS V14.01,2013-01-09 21:51:00,
2013-01-09 16:56:00,44.1,31.5,30.24,SSE,152,0.0,0.0,61,0.00,,---,0.00,VWS V14.01,2013-01-09 21:56:00,
2013-01-09 17:01:00,43.9,31.7,30.24,West,274,0.0,0.0,62,0.00,,---,0.00,VWS V14.01,2013-01-09 22:01:00,
2013-01-09 17:06:00,44.2,33.2,30.24,East,87,2.2,2.2,65,0.00,,---,0.00,VWS V14.01,2013-01-09 22:06:00,
2013-01-09 17:11:00,45.1,35.2,30.24,West,273,0.0,0.0,68,0.00,,---,0.00,VWS V14.01,2013-01-09 22:11:00,
2013-01-09 17:16:00,45.5,35.2,30.24,ENE,66,0.0,2.2,67,0.00,,---,0.00,VWS V14.01,2013-01-09 22:16:00,
2013-01-09 17:21:00,45.1,33.7,30.24,ENE,66,0.0,0.0,64,0.00,,---,0.00,VWS V14.01,2013-01-09 22:21:00,
2013-01-09 17:26:00,44.4,32.6,30.24,NNE,29,0.0,0.0,63,0.00,,---,0.00,VWS V14.01,2013-01-09 22:26:00,
2013-01-09 17:31:00,44.2,33.2,30.24,North,11,0.0,0.0,65,0.00,,---,0.00,VWS V14.01,2013-01-09 22:31:00,
2013-01-09 17:36:00,44.4,34.2,30.24,North,11,0.0,0.0,67,0.00,,---,0.00,VWS V14.01,2013-01-09 22:36:00,
2013-01-09 17:41:00,44.2,34.0,30.24,NE,50,0.0,0.0,67,0.00,,---,0.00,VWS V14.01,2013-01-09 22:41:00,
2013-01-09 17:46:00,44.2,34.4,30.24,WNW,300,4.0,4.0,68,0.00,,---,0.00,VWS V14.01,2013-01-09 22:46:00,
2013-01-09 17:51:00,44.2,34.4,30.24,SW,236,2.2,3.1,68,0.00,,---,0.00,VWS V14.01,2013-01-09 22:51:00,
2013-01-09 17:56:00,44.4,34.9,30.27,SSW,210,0.0,2.2,69,0.00,,---,0.00,VWS V14.01,2013-01-09 22:56:00,
2013-01-09 18:01:00,44.1,34.2,30.27,SSW,210,0.0,0.0,68,0.00,,---,0.00,VWS V14.01,2013-01-09 23:01:00,
2013-01-09 18:06:00,43.5,33.7,30.27,SSW,210,0.0,0.0,68,0.00,,---,0.00,VWS V14.01,2013-01-09 23:06:00,
2013-01-09 18:11:00,43.7,34.2,30.27,WSW,253,3.6,4.0,69,0.00,,---,0.00,VWS V14.01,2013-01-09 23:11:00,
2013-01-09 18:17:00,43.9,35.1,30.27,South,182,3.1,3.1,71,0.00,,---,0.00,VWS V14.01,2013-01-09 23:17:00,
2013-01-09 18:22:00,44.1,35.3,30.27,SSW,206,3.6,4.0,71,0.00,,---,0.00,VWS V14.01,2013-01-09 23:22:00,
2013-01-09 18:27:00,44.6,35.8,30.27,SW,235,4.0,4.5,71,0.00,,---,0.00,VWS V14.01,2013-01-09 23:27:00,
2013-01-09 18:32:00,45.1,36.7,30.27,SSW,213,3.1,4.0,72,0.00,,---,0.00,VWS V14.01,2013-01-09 23:32:00,
2013-01-09 18:37:00,45.0,36.5,30.27,SW,229,0.0,0.0,72,0.00,,---,0.00,VWS V14.01,2013-01-09 23:37:00,
2013-01-09 18:42:00,44.6,35.8,30.27,SE,124,0.0,0.0,71,0.00,,---,0.00,VWS V14.01,2013-01-09 23:42:00,
2013-01-09 18:47:00,45.1,36.7,30.27,NNE,33,0.0,2.7,72,0.00,,---,0.00,VWS V14.01,2013-01-09 23:47:00,
2013-01-09 18:52:00,45.3,36.8,30.27,South,188,0.0,0.0,72,0.00,,---,0.00,VWS V14.01,2013-01-09 23:52:00,
2013-01-09 18:57:00,44.8,36.0,30.27,SSW,203,0.0,0.0,71,0.00,,---,0.00,VWS V14.01,2013-01-09 23:57:00,
2013-01-09 19:02:00,45.0,36.5,30.27,SSE,158,2.7,2.7,72,0.00,,---,0.00,VWS V14.01,2013-01-10 00:02:00,
2013-01-09 19:07:00,44.8,36.3,30.27,SE,142,0.0,2.2,72,0.00,,---,0.00,VWS V14.01,2013-01-10 00:07:00,
2013-01-09 19:12:00,45.1,37.0,30.27,West,260,3.1,3.1,73,0.00,,---,0.00,VWS V14.01,2013-01-10 00:12:00,
2013-01-09 19:17:00,45.3,37.2,30.27,SSW,199,0.0,0.0,73,0.00,,---,0.00,VWS V14.01,2013-01-10 00:17:00,
2013-01-09 19:22:00,45.0,36.5,30.27,West,260,0.0,0.0,72,0.00,,---,0.00,VWS V14.01,2013-01-10 00:22:00,
2013-01-09 19:27:00,44.8,36.7,30.27,SW,232,0.0,0.0,73,0.00,,---,0.00,VWS V14.01,2013-01-10 00:27:00,
2013-01-09 19:32:00,44.8,36.7,30.27,SW,222,0.0,0.0,73,0.00,,---,0.00,VWS V14.01,2013-01-10 00:32:00,
2013-01-09 19:37:00,44.2,36.2,30.27,SSW,210,3.6,4.0,73,0.00,,---,0.00,VWS V14.01,2013-01-10 00:37:00,
2013-01-09 19:42:00,44.6,36.5,30.27,SSE,163,0.0,0.0,73,0.00,,---,0.00,VWS V14.01,2013-01-10 00:42:00,
2013-01-09 19:47:00,44.4,36.3,30.27,WSW,248,0.0,0.0,73,0.00,,---,0.00,VWS V14.01,2013-01-10 00:47:00,
2013-01-09 19:52:00,44.1,36.0,30.27,SE,145,0.0,0.0,73,0.00,,---,0.00,VWS V14.01,2013-01-10 00:52:00,
2013-01-09 19:57:00,43.7,35.6,30.27,ENE,72,0.0,0.0,73,0.00,,---,0.00,VWS V14.01,2013-01-10 00:57:00,
2013-01-09 20:02:00,43.7,36.0,30.27,ENE,72,0.0,0.0,74,0.00,,---,0.00,VWS V14.01,2013-01-10 01:02:00,
2013-01-09 20:07:00,43.7,36.3,30.27,ENE,59,0.0,0.0,75,0.00,,---,0.00,VWS V14.01,2013-01-10 01:07:00,
2013-01-09 20:12:00,43.0,35.3,30.30,ENE,59,0.0,0.0,74,0.00,,---,0.00,VWS V14.01,2013-01-10 01:12:00,
2013-01-09 20:17:00,42.4,34.8,30.30,ENE,59,0.0,0.0,74,0.00,,---,0.00,VWS V14.01,2013-01-10 01:17:00,
2013-01-09 20:22:00,42.3,34.6,30.30,ENE,70,0.0,0.0,74,0.00,,---,0.00,VWS V14.01,2013-01-10 01:22:00,
2013-01-09 20:27:00,42.4,35.4,30.30,East,88,0.0,0.0,76,0.00,,---,0.00,VWS V14.01,2013-01-10 01:27:00,
2013-01-09 20:33:00,43.0,36.0,30.30,ENE,75,0.0,0.0,76,0.00,,---,0.00,VWS V14.01,2013-01-10 01:33:00,
2013-01-09 20:38:00,43.0,36.0,30.30,SW,221,2.7,4.0,76,0.00,,---,0.00,VWS V14.01,2013-01-10 01:38:00,
2013-01-09 20:43:00,43.0,36.0,30.30,South,180,0.0,2.2,76,0.00,,---,0.00,VWS V14.01,2013-01-10 01:43:00,
2013-01-09 20:48:00,42.8,35.8,30.30,ENE,60,0.0,0.0,76,0.00,,---,0.00,VWS V14.01,2013-01-10 01:48:00,
2013-01-09 20:53:00,42.3,34.9,30.30,ENE,60,0.0,0.0,75,0.00,,---,0.00,VWS V14.01,2013-01-10 01:53:00,
2013-01-09 20:58:00,42.8,35.4,30.30,South,184,0.0,0.0,75,0.00,,---,0.00,VWS V14.01,2013-01-10 01:58:00,
2013-01-09 21:03:00,43.0,35.3,30.30,South,184,0.0,0.0,74,0.00,,---,0.00,VWS V14.01,2013-01-10 02:03:00,
2013-01-09 21:08:00,42.4,34.1,30.30,SE,132,2.2,4.9,72,0.00,,---,0.00,VWS V14.01,2013-01-10 02:08:00,
2013-01-09 21:13:00,42.6,33.9,30.30,WSW,241,3.6,6.3,71,0.00,,---,0.00,VWS V14.01,2013-01-10 02:13:00,
2013-01-09 21:18:00,42.8,33.0,30.30,ENE,62,4.0,4.0,68,0.00,,---,0.00,VWS V14.01,2013-01-10 02:18:00,
2013-01-09 21:23:00,42.6,31.3,30.30,North,11,0.0,0.0,64,0.00,,---,0.00,VWS V14.01,2013-01-10 02:23:00,
2013-01-09 21:28:00,42.1,29.6,30.30,NNE,26,3.1,3.6,61,0.00,,---,0.00,VWS V14.01,2013-01-10 02:28:00,
2013-01-09 21:33:00,41.4,28.9,30.30,NE,50,2.7,3.6,61,0.00,,---,0.00,VWS V14.01,2013-01-10 02:33:00,
2013-01-09 21:38:00,40.6,27.9,30.30,SE,142,2.2,3.6,60,0.00,,---,0.00,VWS V14.01,2013-01-10 02:38:00,
2013-01-09 21:43:00,40.5,27.3,30.30,NE,48,3.6,4.0,59,0.00,,---,0.00,VWS V14.01,2013-01-10 02:43:00,
2013-01-09 22:12:00,38.8,24.5,30.30,NE,44,0.0,0.0,56,0.00,,---,0.00,VWS V14.01,2013-01-10 03:12:00,
2013-01-09 22:17:00,38.8,24.5,30.30,NE,48,4.9,4.9,56,0.00,,---,0.00,VWS V14.01,2013-01-10 03:17:00,
2013-01-09 22:22:00,39.0,24.2,30.30,East,81,2.2,3.1,55,0.00,,---,0.00,VWS V14.01,2013-01-10 03:22:00,
2013-01-09 22:27:00,39.6,23.9,30.33,NE,51,0.0,3.6,53,0.00,,---,0.00,VWS V14.01,2013-01-10 03:27:00,
2013-01-09 22:33:00,39.2,23.1,30.33,ENE,64,4.0,4.0,52,0.00,,---,0.00,VWS V14.01,2013-01-10 03:33:00,
2013-01-09 22:38:00,39.7,22.2,30.33,NE,55,2.7,4.0,49,0.00,,---,0.00,VWS V14.01,2013-01-10 03:38:00,
2013-01-09 22:43:00,39.7,22.2,30.33,NE,46,0.0,0.0,49,0.00,,---,0.00,VWS V14.01,2013-01-10 03:43:00,
2013-01-09 22:48:00,39.2,21.7,30.33,NE,49,4.0,4.0,49,0.00,,---,0.00,VWS V14.01,2013-01-10 03:48:00,
2013-01-09 22:53:00,38.7,21.6,30.33,NE,51,4.0,4.0,50,0.00,,---,0.00,VWS V14.01,2013-01-10 03:53:00,
2013-01-09 22:58:00,38.5,21.0,30.33,NE,54,3.1,3.1,49,0.00,,---,0.00,VWS V14.01,2013-01-10 03:58:00,
2013-01-09 23:03:00,38.5,21.0,30.33,NE,50,4.0,5.4,49,0.00,,---,0.00,VWS V14.01,2013-01-10 04:03:00,
2013-01-09 23:08:00,38.5,21.0,30.33,NE,52,2.7,3.6,49,0.00,,---,0.00,VWS V14.01,2013-01-10 04:08:00,
2013-01-09 23:13:00,39.2,18.0,30.33,ENE,63,3.1,3.1,42,0.00,,---,0.00,VWS V14.01,2013-01-10 04:13:00,
2013-01-09 23:18:00,39.7,19.1,30.33,ENE,58,3.6,4.0,43,0.00,,---,0.00,VWS V14.01,2013-01-10 04:18:00,
2013-01-09 23:23:00,39.9,18.1,30.33,ENE,76,4.0,4.9,41,0.00,,---,0.00,VWS V14.01,2013-01-10 04:23:00,
2013-01-09 23:29:00,39.9,18.1,30.33,ENE,58,4.0,4.0,41,0.00,,---,0.00,VWS V14.01,2013-01-10 04:29:00,
2013-01-09 23:34:00,39.6,17.8,30.33,ESE,105,3.6,4.9,41,0.00,,---,0.00,VWS V14.01,2013-01-10 04:34:00,
2013-01-09 23:45:00,40.5,18.1,30.33,ENE,70,3.1,5.4,40,0.00,,---,0.00,VWS V14.01,2013-01-10 04:45:00,
2013-01-09 23:59:00,40.5,17.5,30.33,NE,51,2.7,4.9,39,0.00,,---,0.00,VWS V14.01,2013-01-10 04:59:00,